sensor_id;sensor_type;location;lat;lon;timestamp;temperature;humidity
14140;DHT22;7150;53.514;9.988;2023-02-23T00:00:27;14.00;94.90
14140;DHT22;7150;53.514;9.988;2023-02-23T00:02:56;14.00;95.00
14140;DHT22;7150;53.514;9.988;2023-02-23T00:05:27;14.00;95.00
14140;DHT22;7150;53.514;9.988;2023-02-23T00:07:53;14.00;95.00
14140;DHT22;7150;53.514;9.988;2023-02-23T00:10:20;13.90;95.00
14140;DHT22;7150;53.514;9.988;2023-02-23T00:12:47;13.80;95.20
14140;DHT22;7150;53.514;9.988;2023-02-23T00:15:15;13.80;95.10
14140;DHT22;7150;53.514;9.988;2023-02-23T00:17:41;13.80;95.10
14140;DHT22;7150;53.514;9.988;2023-02-23T00:20:09;13.80;95.10
14140;DHT22;7150;53.514;9.988;2023-02-23T00:22:40;13.80;95.00
14140;DHT22;7150;53.514;9.988;2023-02-23T00:25:10;13.80;95.00
14140;DHT22;7150;53.514;9.988;2023-02-23T00:27:39;13.90;95.00
14140;DHT22;7150;53.514;9.988;2023-02-23T00:30:14;13.80;95.00
14140;DHT22;7150;53.514;9.988;2023-02-23T00:32:41;13.80;95.00
14140;DHT22;7150;53.514;9.988;2023-02-23T00:35:07;13.80;95.00
14140;DHT22;7150;53.514;9.988;2023-02-23T00:37:45;13.80;95.00
14140;DHT22;7150;53.514;9.988;2023-02-23T00:40:12;13.80;95.00
14140;DHT22;7150;53.514;9.988;2023-02-23T00:42:39;13.80;95.00
14140;DHT22;7150;53.514;9.988;2023-02-23T00:45:05;13.80;94.90
14140;DHT22;7150;53.514;9.988;2023-02-23T00:47:35;13.80;94.90
14140;DHT22;7150;53.514;9.988;2023-02-23T00:50:01;13.80;94.90
14140;DHT22;7150;53.514;9.988;2023-02-23T00:52:28;13.80;94.80
14140;DHT22;7150;53.514;9.988;2023-02-23T00:54:53;13.80;94.80
14140;DHT22;7150;53.514;9.988;2023-02-23T00:57:20;13.70;94.80
14140;DHT22;7150;53.514;9.988;2023-02-23T00:59:46;13.70;95.00
14140;DHT22;7150;53.514;9.988;2023-02-23T01:02:12;13.60;94.80
14140;DHT22;7150;53.514;9.988;2023-02-23T01:04:38;13.60;94.90
14140;DHT22;7150;53.514;9.988;2023-02-23T01:07:03;13.60;95.00
14140;DHT22;7150;53.514;9.988;2023-02-23T01:09:31;13.60;94.90
14140;DHT22;7150;53.514;9.988;2023-02-23T01:11:57;13.60;95.00
14140;DHT22;7150;53.514;9.988;2023-02-23T01:14:26;13.60;95.00
14140;DHT22;7150;53.514;9.988;2023-02-23T01:16:53;13.60;95.00
14140;DHT22;7150;53.514;9.988;2023-02-23T01:19:19;13.50;95.00
14140;DHT22;7150;53.514;9.988;2023-02-23T01:21:44;13.60;95.00
14140;DHT22;7150;53.514;9.988;2023-02-23T01:24:10;13.60;95.00
14140;DHT22;7150;53.514;9.988;2023-02-23T01:26:39;13.60;94.90
14140;DHT22;7150;53.514;9.988;2023-02-23T01:29:08;13.50;94.90
14140;DHT22;7150;53.514;9.988;2023-02-23T01:31:36;13.50;94.90
14140;DHT22;7150;53.514;9.988;2023-02-23T01:34:03;13.60;94.90
14140;DHT22;7150;53.514;9.988;2023-02-23T01:36:33;13.40;95.00
14140;DHT22;7150;53.514;9.988;2023-02-23T01:38:59;13.50;95.10
14140;DHT22;7150;53.514;9.988;2023-02-23T01:41:27;13.40;95.10
14140;DHT22;7150;53.514;9.988;2023-02-23T01:46:22;13.40;95.10
14140;DHT22;7150;53.514;9.988;2023-02-23T01:48:48;13.40;95.10
14140;DHT22;7150;53.514;9.988;2023-02-23T01:51:18;13.40;95.20
14140;DHT22;7150;53.514;9.988;2023-02-23T01:53:51;13.50;95.20
14140;DHT22;7150;53.514;9.988;2023-02-23T01:56:23;13.50;95.20
14140;DHT22;7150;53.514;9.988;2023-02-23T01:58:52;13.50;95.20
14140;DHT22;7150;53.514;9.988;2023-02-23T02:01:19;13.50;95.20
14140;DHT22;7150;53.514;9.988;2023-02-23T02:03:53;13.50;95.20
14140;DHT22;7150;53.514;9.988;2023-02-23T02:06:22;13.50;95.20
14140;DHT22;7150;53.514;9.988;2023-02-23T02:08:51;13.60;95.20
14140;DHT22;7150;53.514;9.988;2023-02-23T02:11:20;13.50;95.20
14140;DHT22;7150;53.514;9.988;2023-02-23T02:14:16;13.50;95.30
14140;DHT22;7150;53.514;9.988;2023-02-23T02:17:50;13.50;95.30
14140;DHT22;7150;53.514;9.988;2023-02-23T02:26:14;13.50;95.40
14140;DHT22;7150;53.514;9.988;2023-02-23T02:32:09;13.40;95.40
14140;DHT22;7150;53.514;9.988;2023-02-23T02:41:02;13.50;95.50
14140;DHT22;7150;53.514;9.988;2023-02-23T02:51:36;13.50;95.50
14140;DHT22;7150;53.514;9.988;2023-02-23T02:54:30;13.50;95.50
14140;DHT22;7150;53.514;9.988;2023-02-23T02:56:59;13.60;95.50
14140;DHT22;7150;53.514;9.988;2023-02-23T02:59:27;13.60;95.50
14140;DHT22;7150;53.514;9.988;2023-02-23T03:02:17;13.50;95.40
14140;DHT22;7150;53.514;9.988;2023-02-23T03:05:02;13.50;95.40
14140;DHT22;7150;53.514;9.988;2023-02-23T03:08:20;13.50;95.50
14140;DHT22;7150;53.514;9.988;2023-02-23T03:11:09;13.50;95.40
14140;DHT22;7150;53.514;9.988;2023-02-23T03:17:35;13.50;95.40
14140;DHT22;7150;53.514;9.988;2023-02-23T03:20:27;13.50;95.50
14140;DHT22;7150;53.514;9.988;2023-02-23T03:24:13;13.40;95.50
14140;DHT22;7150;53.514;9.988;2023-02-23T03:26:41;13.50;95.50
14140;DHT22;7150;53.514;9.988;2023-02-23T03:32:43;13.40;95.60
14140;DHT22;7150;53.514;9.988;2023-02-23T03:35:36;13.40;95.60
14140;DHT22;7150;53.514;9.988;2023-02-23T03:38:37;13.40;95.50
14140;DHT22;7150;53.514;9.988;2023-02-23T03:41:26;13.40;95.80
14140;DHT22;7150;53.514;9.988;2023-02-23T03:44:19;13.40;95.60
14140;DHT22;7150;53.514;9.988;2023-02-23T03:47:06;13.40;95.60
14140;DHT22;7150;53.514;9.988;2023-02-23T03:49:53;13.40;95.60
14140;DHT22;7150;53.514;9.988;2023-02-23T03:52:43;13.30;95.60
14140;DHT22;7150;53.514;9.988;2023-02-23T03:55:31;13.40;95.60
14140;DHT22;7150;53.514;9.988;2023-02-23T03:58:21;13.40;95.60
14140;DHT22;7150;53.514;9.988;2023-02-23T04:01:06;13.40;95.60
14140;DHT22;7150;53.514;9.988;2023-02-23T04:03:52;13.30;95.60
14140;DHT22;7150;53.514;9.988;2023-02-23T04:06:41;13.30;95.50
14140;DHT22;7150;53.514;9.988;2023-02-23T04:09:26;13.40;95.60
14140;DHT22;7150;53.514;9.988;2023-02-23T04:17:42;13.30;95.60
14140;DHT22;7150;53.514;9.988;2023-02-23T04:20:10;13.30;95.60
14140;DHT22;7150;53.514;9.988;2023-02-23T04:22:36;13.30;95.90
14140;DHT22;7150;53.514;9.988;2023-02-23T04:25:02;13.40;95.60
14140;DHT22;7150;53.514;9.988;2023-02-23T04:27:27;13.40;95.60
14140;DHT22;7150;53.514;9.988;2023-02-23T04:29:53;13.40;95.50
14140;DHT22;7150;53.514;9.988;2023-02-23T04:32:19;13.40;95.50
14140;DHT22;7150;53.514;9.988;2023-02-23T04:34:47;13.40;95.50
14140;DHT22;7150;53.514;9.988;2023-02-23T04:37:14;13.40;95.50
14140;DHT22;7150;53.514;9.988;2023-02-23T04:39:40;13.40;95.50
14140;DHT22;7150;53.514;9.988;2023-02-23T04:42:07;13.40;95.60
14140;DHT22;7150;53.514;9.988;2023-02-23T04:44:32;13.40;95.60
14140;DHT22;7150;53.514;9.988;2023-02-23T04:46:58;13.50;95.50
14140;DHT22;7150;53.514;9.988;2023-02-23T04:49:23;13.40;95.40
14140;DHT22;7150;53.514;9.988;2023-02-23T04:51:49;13.50;95.40
14140;DHT22;7150;53.514;9.988;2023-02-23T04:54:14;13.50;95.40
14140;DHT22;7150;53.514;9.988;2023-02-23T04:56:40;13.50;95.40
14140;DHT22;7150;53.514;9.988;2023-02-23T04:59:05;13.60;95.40
14140;DHT22;7150;53.514;9.988;2023-02-23T05:01:31;13.50;95.40
14140;DHT22;7150;53.514;9.988;2023-02-23T05:03:57;13.40;95.40
14140;DHT22;7150;53.514;9.988;2023-02-23T05:06:24;13.40;95.40
14140;DHT22;7150;53.514;9.988;2023-02-23T05:08:50;13.50;95.40
14140;DHT22;7150;53.514;9.988;2023-02-23T05:11:15;13.50;95.40
14140;DHT22;7150;53.514;9.988;2023-02-23T05:13:41;13.50;95.40
14140;DHT22;7150;53.514;9.988;2023-02-23T05:16:06;13.50;95.40
14140;DHT22;7150;53.514;9.988;2023-02-23T05:18:32;13.50;95.40
14140;DHT22;7150;53.514;9.988;2023-02-23T05:21:05;13.50;95.40
14140;DHT22;7150;53.514;9.988;2023-02-23T05:23:32;13.40;95.50
14140;DHT22;7150;53.514;9.988;2023-02-23T05:26:04;13.40;95.50
14140;DHT22;7150;53.514;9.988;2023-02-23T05:28:31;13.50;95.50
14140;DHT22;7150;53.514;9.988;2023-02-23T05:30:56;13.40;95.40
14140;DHT22;7150;53.514;9.988;2023-02-23T05:33:22;13.40;95.40
14140;DHT22;7150;53.514;9.988;2023-02-23T05:35:47;13.40;95.50
14140;DHT22;7150;53.514;9.988;2023-02-23T05:38:13;13.40;95.50
14140;DHT22;7150;53.514;9.988;2023-02-23T05:40:39;13.40;95.40
14140;DHT22;7150;53.514;9.988;2023-02-23T05:43:04;13.50;95.40
14140;DHT22;7150;53.514;9.988;2023-02-23T05:45:30;13.40;95.40
14140;DHT22;7150;53.514;9.988;2023-02-23T05:47:55;13.40;95.50
14140;DHT22;7150;53.514;9.988;2023-02-23T05:50:21;13.40;95.50
14140;DHT22;7150;53.514;9.988;2023-02-23T05:52:47;13.40;95.60
14140;DHT22;7150;53.514;9.988;2023-02-23T05:55:12;13.40;95.60
14140;DHT22;7150;53.514;9.988;2023-02-23T05:57:38;13.30;95.60
14140;DHT22;7150;53.514;9.988;2023-02-23T06:00:06;13.30;95.60
14140;DHT22;7150;53.514;9.988;2023-02-23T06:02:32;13.30;95.60
14140;DHT22;7150;53.514;9.988;2023-02-23T06:04:57;13.40;95.60
14140;DHT22;7150;53.514;9.988;2023-02-23T06:07:23;13.40;95.60
14140;DHT22;7150;53.514;9.988;2023-02-23T06:09:48;13.40;95.60
14140;DHT22;7150;53.514;9.988;2023-02-23T06:12:14;13.50;95.50
14140;DHT22;7150;53.514;9.988;2023-02-23T06:14:39;13.50;95.50
14140;DHT22;7150;53.514;9.988;2023-02-23T06:17:06;13.50;95.50
14140;DHT22;7150;53.514;9.988;2023-02-23T06:19:32;13.50;95.40
14140;DHT22;7150;53.514;9.988;2023-02-23T06:21:57;13.50;95.50
14140;DHT22;7150;53.514;9.988;2023-02-23T06:24:23;13.50;95.50
14140;DHT22;7150;53.514;9.988;2023-02-23T06:26:49;13.50;95.50
14140;DHT22;7150;53.514;9.988;2023-02-23T06:29:15;13.50;95.40
14140;DHT22;7150;53.514;9.988;2023-02-23T06:31:41;13.50;95.40
14140;DHT22;7150;53.514;9.988;2023-02-23T06:34:07;13.50;95.40
14140;DHT22;7150;53.514;9.988;2023-02-23T06:36:32;13.60;95.40
14140;DHT22;7150;53.514;9.988;2023-02-23T06:38:58;13.60;95.40
14140;DHT22;7150;53.514;9.988;2023-02-23T06:41:25;13.60;95.40
14140;DHT22;7150;53.514;9.988;2023-02-23T06:43:51;13.60;95.50
14140;DHT22;7150;53.514;9.988;2023-02-23T06:46:17;13.60;95.40
14140;DHT22;7150;53.514;9.988;2023-02-23T06:48:43;13.60;95.40
14140;DHT22;7150;53.514;9.988;2023-02-23T06:51:08;13.60;95.50
14140;DHT22;7150;53.514;9.988;2023-02-23T06:53:35;13.70;95.50
14140;DHT22;7150;53.514;9.988;2023-02-23T06:56:01;13.70;95.50
14140;DHT22;7150;53.514;9.988;2023-02-23T06:58:27;13.70;95.50
14140;DHT22;7150;53.514;9.988;2023-02-23T07:00:57;13.70;95.50
14140;DHT22;7150;53.514;9.988;2023-02-23T07:03:24;13.80;95.60
14140;DHT22;7150;53.514;9.988;2023-02-23T07:05:50;13.80;95.60
14140;DHT22;7150;53.514;9.988;2023-02-23T07:08:16;13.80;95.90
14140;DHT22;7150;53.514;9.988;2023-02-23T07:10:43;13.80;95.60
14140;DHT22;7150;53.514;9.988;2023-02-23T07:13:08;13.90;95.60
14140;DHT22;7150;53.514;9.988;2023-02-23T07:15:35;13.90;95.60
14140;DHT22;7150;53.514;9.988;2023-02-23T07:18:01;13.90;95.70
14140;DHT22;7150;53.514;9.988;2023-02-23T07:20:26;13.90;95.70
14140;DHT22;7150;53.514;9.988;2023-02-23T07:22:52;14.00;95.80
14140;DHT22;7150;53.514;9.988;2023-02-23T07:25:19;14.00;95.80
14140;DHT22;7150;53.514;9.988;2023-02-23T07:27:45;14.00;95.80
14140;DHT22;7150;53.514;9.988;2023-02-23T07:30:11;14.00;95.80
14140;DHT22;7150;53.514;9.988;2023-02-23T07:32:36;14.00;95.80
14140;DHT22;7150;53.514;9.988;2023-02-23T07:35:03;14.00;95.80
14140;DHT22;7150;53.514;9.988;2023-02-23T07:37:29;14.00;95.90
14140;DHT22;7150;53.514;9.988;2023-02-23T07:39:55;14.00;95.90
14140;DHT22;7150;53.514;9.988;2023-02-23T07:42:20;14.00;95.90
14140;DHT22;7150;53.514;9.988;2023-02-23T07:44:46;14.00;95.90
14140;DHT22;7150;53.514;9.988;2023-02-23T07:47:11;14.00;96.00
14140;DHT22;7150;53.514;9.988;2023-02-23T07:49:37;14.10;96.00
14140;DHT22;7150;53.514;9.988;2023-02-23T07:52:02;14.00;96.00
14140;DHT22;7150;53.514;9.988;2023-02-23T07:54:28;14.10;96.00
14140;DHT22;7150;53.514;9.988;2023-02-23T07:56:53;14.00;96.00
14140;DHT22;7150;53.514;9.988;2023-02-23T07:59:19;14.00;96.00
14140;DHT22;7150;53.514;9.988;2023-02-23T08:01:44;14.00;96.00
14140;DHT22;7150;53.514;9.988;2023-02-23T08:04:10;13.90;96.10
14140;DHT22;7150;53.514;9.988;2023-02-23T08:06:35;14.00;96.20
14140;DHT22;7150;53.514;9.988;2023-02-23T08:09:03;14.00;96.20
14140;DHT22;7150;53.514;9.988;2023-02-23T08:11:29;14.10;96.30
14140;DHT22;7150;53.514;9.988;2023-02-23T08:13:55;14.10;96.30
14140;DHT22;7150;53.514;9.988;2023-02-23T08:16:28;14.10;96.20
14140;DHT22;7150;53.514;9.988;2023-02-23T08:18:58;14.10;96.20
14140;DHT22;7150;53.514;9.988;2023-02-23T08:21:24;14.10;96.10
14140;DHT22;7150;53.514;9.988;2023-02-23T08:23:49;14.10;96.10
14140;DHT22;7150;53.514;9.988;2023-02-23T08:26:15;14.10;96.10
14140;DHT22;7150;53.514;9.988;2023-02-23T08:28:41;14.10;96.10
14140;DHT22;7150;53.514;9.988;2023-02-23T08:31:10;14.10;96.20
14140;DHT22;7150;53.514;9.988;2023-02-23T08:33:36;14.10;96.20
14140;DHT22;7150;53.514;9.988;2023-02-23T08:36:03;14.10;96.10
14140;DHT22;7150;53.514;9.988;2023-02-23T08:38:29;14.00;96.20
14140;DHT22;7150;53.514;9.988;2023-02-23T08:40:54;14.00;96.20
14140;DHT22;7150;53.514;9.988;2023-02-23T08:43:23;14.00;96.20
14140;DHT22;7150;53.514;9.988;2023-02-23T08:45:49;14.10;96.30
14140;DHT22;7150;53.514;9.988;2023-02-23T08:48:14;14.10;96.20
14140;DHT22;7150;53.514;9.988;2023-02-23T08:50:40;14.10;96.20
14140;DHT22;7150;53.514;9.988;2023-02-23T08:53:05;14.10;96.20
14140;DHT22;7150;53.514;9.988;2023-02-23T08:55:31;14.10;96.20
14140;DHT22;7150;53.514;9.988;2023-02-23T08:57:59;14.10;96.20
14140;DHT22;7150;53.514;9.988;2023-02-23T09:00:25;14.10;96.20
14140;DHT22;7150;53.514;9.988;2023-02-23T09:02:51;14.10;96.20
14140;DHT22;7150;53.514;9.988;2023-02-23T09:05:16;14.10;96.20
14140;DHT22;7150;53.514;9.988;2023-02-23T09:07:43;14.00;96.10
14140;DHT22;7150;53.514;9.988;2023-02-23T09:10:13;14.10;96.20
14140;DHT22;7150;53.514;9.988;2023-02-23T09:12:39;14.10;96.50
14140;DHT22;7150;53.514;9.988;2023-02-23T09:15:05;14.10;96.20
14140;DHT22;7150;53.514;9.988;2023-02-23T09:17:31;14.10;96.10
14140;DHT22;7150;53.514;9.988;2023-02-23T09:19:57;14.10;96.10
14140;DHT22;7150;53.514;9.988;2023-02-23T09:22:22;14.00;96.10
14140;DHT22;7150;53.514;9.988;2023-02-23T09:24:48;14.00;96.10
14140;DHT22;7150;53.514;9.988;2023-02-23T09:27:13;14.00;96.10
14140;DHT22;7150;53.514;9.988;2023-02-23T09:29:39;14.00;96.10
14140;DHT22;7150;53.514;9.988;2023-02-23T09:32:07;14.00;96.10
14140;DHT22;7150;53.514;9.988;2023-02-23T09:34:32;14.00;96.10
14140;DHT22;7150;53.514;9.988;2023-02-23T09:37:03;14.00;96.10
14140;DHT22;7150;53.514;9.988;2023-02-23T09:39:29;14.00;96.20
14140;DHT22;7150;53.514;9.988;2023-02-23T09:42:15;13.90;96.00
14140;DHT22;7150;53.514;9.988;2023-02-23T09:47:39;13.90;96.10
14140;DHT22;7150;53.514;9.988;2023-02-23T09:50:16;13.80;96.10
14140;DHT22;7150;53.514;9.988;2023-02-23T09:52:45;13.80;96.10
14140;DHT22;7150;53.514;9.988;2023-02-23T09:55:12;13.90;96.00
14140;DHT22;7150;53.514;9.988;2023-02-23T09:57:40;13.90;96.00
14140;DHT22;7150;53.514;9.988;2023-02-23T10:00:19;13.90;96.00
14140;DHT22;7150;53.514;9.988;2023-02-23T10:03:16;13.80;96.00
14140;DHT22;7150;53.514;9.988;2023-02-23T10:05:46;13.90;96.00
14140;DHT22;7150;53.514;9.988;2023-02-23T10:11:28;13.80;95.90
14140;DHT22;7150;53.514;9.988;2023-02-23T10:19:52;13.80;95.80
14140;DHT22;7150;53.514;9.988;2023-02-23T10:22:21;13.80;95.80
14140;DHT22;7150;53.514;9.988;2023-02-23T10:24:55;13.90;95.80
14140;DHT22;7150;53.514;9.988;2023-02-23T10:27:29;14.00;95.70
14140;DHT22;7150;53.514;9.988;2023-02-23T10:29:58;14.00;95.60
14140;DHT22;7150;53.514;9.988;2023-02-23T10:32:42;14.10;95.40
14140;DHT22;7150;53.514;9.988;2023-02-23T10:35:14;14.10;95.30
14140;DHT22;7150;53.514;9.988;2023-02-23T10:37:40;14.10;95.00
14140;DHT22;7150;53.514;9.988;2023-02-23T10:40:06;14.00;94.90
14140;DHT22;7150;53.514;9.988;2023-02-23T10:42:38;14.00;95.00
14140;DHT22;7150;53.514;9.988;2023-02-23T10:45:11;14.00;95.00
14140;DHT22;7150;53.514;9.988;2023-02-23T10:47:44;14.00;94.90
14140;DHT22;7150;53.514;9.988;2023-02-23T10:50:10;14.10;94.80
14140;DHT22;7150;53.514;9.988;2023-02-23T10:52:41;14.10;94.50
14140;DHT22;7150;53.514;9.988;2023-02-23T10:55:23;14.10;94.70
14140;DHT22;7150;53.514;9.988;2023-02-23T10:57:50;14.10;94.60
14140;DHT22;7150;53.514;9.988;2023-02-23T11:00:27;14.00;94.40
14140;DHT22;7150;53.514;9.988;2023-02-23T11:02:55;14.00;94.40
14140;DHT22;7150;53.514;9.988;2023-02-23T11:05:45;14.00;94.40
14140;DHT22;7150;53.514;9.988;2023-02-23T11:08:37;14.00;94.50
14140;DHT22;7150;53.514;9.988;2023-02-23T11:13:45;13.90;94.50
14140;DHT22;7150;53.514;9.988;2023-02-23T11:16:12;13.90;94.50
14140;DHT22;7150;53.514;9.988;2023-02-23T11:18:41;13.90;94.40
14140;DHT22;7150;53.514;9.988;2023-02-23T11:21:10;13.80;94.30
14140;DHT22;7150;53.514;9.988;2023-02-23T11:23:37;13.80;94.10
14140;DHT22;7150;53.514;9.988;2023-02-23T11:26:19;13.70;94.20
14140;DHT22;7150;53.514;9.988;2023-02-23T11:28:51;13.70;94.10
14140;DHT22;7150;53.514;9.988;2023-02-23T11:31:20;13.70;94.20
14140;DHT22;7150;53.514;9.988;2023-02-23T11:33:47;13.80;94.20
14140;DHT22;7150;53.514;9.988;2023-02-23T11:36:18;13.80;94.10
14140;DHT22;7150;53.514;9.988;2023-02-23T11:41:31;14.10;94.10
14140;DHT22;7150;53.514;9.988;2023-02-23T11:44:00;14.10;94.30
14140;DHT22;7150;53.514;9.988;2023-02-23T11:46:27;14.10;93.50
14140;DHT22;7150;53.514;9.988;2023-02-23T11:49:03;14.10;93.50
14140;DHT22;7150;53.514;9.988;2023-02-23T11:51:39;14.20;93.40
14140;DHT22;7150;53.514;9.988;2023-02-23T11:54:07;14.30;93.40
14140;DHT22;7150;53.514;9.988;2023-02-23T11:56:47;14.30;93.10
14140;DHT22;7150;53.514;9.988;2023-02-23T11:59:17;14.30;93.00
14140;DHT22;7150;53.514;9.988;2023-02-23T12:01:50;14.30;93.00
14140;DHT22;7150;53.514;9.988;2023-02-23T12:04:36;14.20;92.80
14140;DHT22;7150;53.514;9.988;2023-02-23T12:07:40;14.20;92.80
14140;DHT22;7150;53.514;9.988;2023-02-23T12:13:02;14.10;92.60
14140;DHT22;7150;53.514;9.988;2023-02-23T12:15:59;14.20;92.70
14140;DHT22;7150;53.514;9.988;2023-02-23T12:18:29;14.20;92.50
14140;DHT22;7150;53.514;9.988;2023-02-23T12:21:19;14.30;92.60
14140;DHT22;7150;53.514;9.988;2023-02-23T12:23:48;14.40;92.40
14140;DHT22;7150;53.514;9.988;2023-02-23T12:26:19;14.40;92.10
14140;DHT22;7150;53.514;9.988;2023-02-23T12:29:16;14.30;92.10
14140;DHT22;7150;53.514;9.988;2023-02-23T12:31:52;14.30;91.80
14140;DHT22;7150;53.514;9.988;2023-02-23T12:34:26;14.30;92.10
14140;DHT22;7150;53.514;9.988;2023-02-23T12:39:40;14.20;92.30
14140;DHT22;7150;53.514;9.988;2023-02-23T12:42:41;14.20;92.10
14140;DHT22;7150;53.514;9.988;2023-02-23T12:45:23;14.30;92.00
14140;DHT22;7150;53.514;9.988;2023-02-23T12:48:05;14.30;92.00
14140;DHT22;7150;53.514;9.988;2023-02-23T12:50:38;14.30;92.00
14140;DHT22;7150;53.514;9.988;2023-02-23T12:53:18;14.30;91.70
14140;DHT22;7150;53.514;9.988;2023-02-23T12:56:03;14.30;91.70
14140;DHT22;7150;53.514;9.988;2023-02-23T12:58:38;14.30;91.90
14140;DHT22;7150;53.514;9.988;2023-02-23T13:01:12;14.20;91.80
14140;DHT22;7150;53.514;9.988;2023-02-23T13:07:19;14.30;91.60
14140;DHT22;7150;53.514;9.988;2023-02-23T13:12:50;14.30;91.50
14140;DHT22;7150;53.514;9.988;2023-02-23T13:15:45;14.20;91.60
14140;DHT22;7150;53.514;9.988;2023-02-23T13:18:22;14.20;91.90
14140;DHT22;7150;53.514;9.988;2023-02-23T13:29:02;14.30;91.90
14140;DHT22;7150;53.514;9.988;2023-02-23T13:31:33;14.30;91.90
14140;DHT22;7150;53.514;9.988;2023-02-23T13:34:01;14.30;91.70
14140;DHT22;7150;53.514;9.988;2023-02-23T13:36:30;14.20;91.80
14140;DHT22;7150;53.514;9.988;2023-02-23T13:39:26;14.20;91.90
14140;DHT22;7150;53.514;9.988;2023-02-23T13:44:57;14.30;91.90
14140;DHT22;7150;53.514;9.988;2023-02-23T13:47:46;14.30;92.00
14140;DHT22;7150;53.514;9.988;2023-02-23T13:53:37;14.30;92.00
14140;DHT22;7150;53.514;9.988;2023-02-23T13:56:10;14.30;92.10
14140;DHT22;7150;53.514;9.988;2023-02-23T13:58:45;14.30;92.00
14140;DHT22;7150;53.514;9.988;2023-02-23T14:01:19;14.40;92.10
14140;DHT22;7150;53.514;9.988;2023-02-23T14:03:59;14.30;92.10
14140;DHT22;7150;53.514;9.988;2023-02-23T14:06:27;14.30;92.00
14140;DHT22;7150;53.514;9.988;2023-02-23T14:08:57;14.30;92.10
14140;DHT22;7150;53.514;9.988;2023-02-23T14:14:13;14.40;91.90
14140;DHT22;7150;53.514;9.988;2023-02-23T14:16:41;14.40;91.80
14140;DHT22;7150;53.514;9.988;2023-02-23T14:19:31;14.30;91.80
14140;DHT22;7150;53.514;9.988;2023-02-23T14:22:07;14.30;91.90
14140;DHT22;7150;53.514;9.988;2023-02-23T14:24:34;14.30;92.00
14140;DHT22;7150;53.514;9.988;2023-02-23T14:29:29;14.30;91.60
14140;DHT22;7150;53.514;9.988;2023-02-23T14:32:16;14.30;91.70
14140;DHT22;7150;53.514;9.988;2023-02-23T14:34:58;14.30;91.60
14140;DHT22;7150;53.514;9.988;2023-02-23T14:37:39;14.30;91.70
14140;DHT22;7150;53.514;9.988;2023-02-23T14:40:17;14.30;91.70
14140;DHT22;7150;53.514;9.988;2023-02-23T14:42:48;14.30;91.70
14140;DHT22;7150;53.514;9.988;2023-02-23T14:45:46;14.30;91.70
14140;DHT22;7150;53.514;9.988;2023-02-23T14:48:12;14.30;91.70
14140;DHT22;7150;53.514;9.988;2023-02-23T14:50:40;14.30;91.70
14140;DHT22;7150;53.514;9.988;2023-02-23T14:53:14;14.30;91.60
14140;DHT22;7150;53.514;9.988;2023-02-23T14:55:42;14.30;91.60
14140;DHT22;7150;53.514;9.988;2023-02-23T14:58:30;14.40;91.40
14140;DHT22;7150;53.514;9.988;2023-02-23T15:00:57;14.40;91.50
14140;DHT22;7150;53.514;9.988;2023-02-23T15:03:23;14.30;91.30
14140;DHT22;7150;53.514;9.988;2023-02-23T15:05:55;14.30;91.40
14140;DHT22;7150;53.514;9.988;2023-02-23T15:08:23;14.30;91.50
14140;DHT22;7150;53.514;9.988;2023-02-23T15:13:34;14.40;91.10
14140;DHT22;7150;53.514;9.988;2023-02-23T15:16:15;14.40;91.20
14140;DHT22;7150;53.514;9.988;2023-02-23T15:21:56;14.50;91.10
14140;DHT22;7150;53.514;9.988;2023-02-23T15:24:29;14.30;91.20
14140;DHT22;7150;53.514;9.988;2023-02-23T15:26:56;14.30;91.30
14140;DHT22;7150;53.514;9.988;2023-02-23T15:29:24;14.30;91.40
14140;DHT22;7150;53.514;9.988;2023-02-23T15:31:52;14.20;91.60
14140;DHT22;7150;53.514;9.988;2023-02-23T15:34:23;14.10;91.70
14140;DHT22;7150;53.514;9.988;2023-02-23T15:39:21;14.10;91.80
14140;DHT22;7150;53.514;9.988;2023-02-23T15:41:51;14.00;91.90
14140;DHT22;7150;53.514;9.988;2023-02-23T15:44:22;14.10;92.10
14140;DHT22;7150;53.514;9.988;2023-02-23T15:46:54;14.10;91.90
14140;DHT22;7150;53.514;9.988;2023-02-23T15:49:21;14.20;92.00
14140;DHT22;7150;53.514;9.988;2023-02-23T15:51:55;14.20;92.00
14140;DHT22;7150;53.514;9.988;2023-02-23T15:54:31;14.20;91.80
14140;DHT22;7150;53.514;9.988;2023-02-23T15:57:02;14.10;91.90
14140;DHT22;7150;53.514;9.988;2023-02-23T15:59:32;14.10;91.90
14140;DHT22;7150;53.514;9.988;2023-02-23T16:02:00;14.10;92.10
14140;DHT22;7150;53.514;9.988;2023-02-23T16:04:37;14.10;92.10
14140;DHT22;7150;53.514;9.988;2023-02-23T16:09:51;14.10;92.20
14140;DHT22;7150;53.514;9.988;2023-02-23T16:12:20;14.10;92.10
14140;DHT22;7150;53.514;9.988;2023-02-23T16:14:53;14.10;92.30
14140;DHT22;7150;53.514;9.988;2023-02-23T16:17:43;14.10;92.30
14140;DHT22;7150;53.514;9.988;2023-02-23T16:20:16;14.10;92.30
14140;DHT22;7150;53.514;9.988;2023-02-23T16:22:46;14.10;92.20
14140;DHT22;7150;53.514;9.988;2023-02-23T16:25:15;14.00;92.30
14140;DHT22;7150;53.514;9.988;2023-02-23T16:27:42;14.00;92.30
14140;DHT22;7150;53.514;9.988;2023-02-23T16:30:32;14.00;92.50
14140;DHT22;7150;53.514;9.988;2023-02-23T16:33:21;14.00;92.50
14140;DHT22;7150;53.514;9.988;2023-02-23T16:35:49;14.00;92.70
14140;DHT22;7150;53.514;9.988;2023-02-23T16:40:43;13.90;92.90
14140;DHT22;7150;53.514;9.988;2023-02-23T16:43:09;13.90;93.10
14140;DHT22;7150;53.514;9.988;2023-02-23T16:45:35;13.80;93.00
14140;DHT22;7150;53.514;9.988;2023-02-23T16:48:02;13.70;92.90
14140;DHT22;7150;53.514;9.988;2023-02-23T16:50:28;13.70;93.20
14140;DHT22;7150;53.514;9.988;2023-02-23T16:52:54;13.70;93.20
14140;DHT22;7150;53.514;9.988;2023-02-23T16:55:23;13.60;92.80
14140;DHT22;7150;53.514;9.988;2023-02-23T16:57:57;13.50;93.00
14140;DHT22;7150;53.514;9.988;2023-02-23T17:00:29;13.50;93.00
14140;DHT22;7150;53.514;9.988;2023-02-23T17:02:55;13.40;93.00
14140;DHT22;7150;53.514;9.988;2023-02-23T17:05:22;13.40;92.90
14140;DHT22;7150;53.514;9.988;2023-02-23T17:07:49;13.40;92.80
14140;DHT22;7150;53.514;9.988;2023-02-23T17:10:18;13.40;92.80
14140;DHT22;7150;53.514;9.988;2023-02-23T17:12:53;13.40;92.70
14140;DHT22;7150;53.514;9.988;2023-02-23T17:15:20;13.30;91.70
14140;DHT22;7150;53.514;9.988;2023-02-23T17:17:46;13.30;91.10
14140;DHT22;7150;53.514;9.988;2023-02-23T17:20:11;13.20;90.90
14140;DHT22;7150;53.514;9.988;2023-02-23T17:22:46;13.20;90.60
14140;DHT22;7150;53.514;9.988;2023-02-23T17:25:12;13.20;90.60
14140;DHT22;7150;53.514;9.988;2023-02-23T17:27:37;13.20;90.00
14140;DHT22;7150;53.514;9.988;2023-02-23T17:30:05;13.30;88.40
14140;DHT22;7150;53.514;9.988;2023-02-23T17:32:31;13.30;88.50
14140;DHT22;7150;53.514;9.988;2023-02-23T17:34:57;13.30;88.70
14140;DHT22;7150;53.514;9.988;2023-02-23T17:37:22;13.30;88.50
14140;DHT22;7150;53.514;9.988;2023-02-23T17:39:48;13.20;88.70
14140;DHT22;7150;53.514;9.988;2023-02-23T17:42:14;13.20;88.80
14140;DHT22;7150;53.514;9.988;2023-02-23T17:44:40;13.20;88.80
14140;DHT22;7150;53.514;9.988;2023-02-23T17:47:06;13.30;88.90
14140;DHT22;7150;53.514;9.988;2023-02-23T17:49:31;13.30;88.70
14140;DHT22;7150;53.514;9.988;2023-02-23T17:51:57;13.20;88.40